Time;durP1;ratioP1;P1;durP2;ratioP2;P2;SDS_P1;SDS_P2;PMS_P1;PMS_P2;Temp;Humidity;BMP_temperature;BMP_pressure;BME280_temperature;BME280_humidity;BME280_pressure;Samples;Min_cycle;Max_cycle;Signal;HPM_P1;HPM_P2
2022/11/04 00:01:58;;;;;;;2.05;1.00;;;;;;;;;;6219273;23;20016;-73
2022/11/04 00:04:25;;;;;;;1.65;1.40;;;;;;;;;;6219348;23;20093;-73
2022/11/04 00:06:52;;;;;;;4.95;1.13;;;;;;;;;;6219439;23;20469;-73
2022/11/04 00:09:19;;;;;;;8.07;1.15;;;;;;;;;;6219363;23;20024;-74
2022/11/04 00:14:30;;;;;;;6.28;0.82;;;;;;;;;;6219315;23;20095;-73
2022/11/04 00:33:24;;;;;;;3.63;0.82;;;;;;;;;;6219131;23;20016;-73
2022/11/04 00:33:48;;;;;;;2.70;1.02;;;;;;;;;;6219093;23;20043;-73
2022/11/04 00:36:15;;;;;;;6.25;1.10;;;;;;;;;;6219042;23;20008;-73
2022/11/04 00:38:41;;;;;;;4.88;1.17;;;;;;;;;;6219030;23;20024;-73
2022/11/04 00:41:24;;;;;;;4.80;1.25;;;;;;;;;;6219031;23;20090;-73
2022/11/04 00:43:54;;;;;;;5.75;1.10;;;;;;;;;;6218929;23;20086;-73
2022/11/04 00:46:21;;;;;;;7.57;1.10;;;;;;;;;;6245953;23;20011;-73
2022/11/04 00:48:47;;;;;;;7.05;1.95;;;;;;;;;;6218952;23;20019;-73
2022/11/04 00:51:14;;;;;;;5.95;1.20;;;;;;;;;;6219147;23;20024;-72
2022/11/04 00:53:40;;;;;;;7.95;1.40;;;;;;;;;;6245998;23;20334;-73
2022/11/04 00:56:06;;;;;;;9.57;1.35;;;;;;;;;;6219042;23;20020;-73
2022/11/04 00:58:32;;;;;;;4.95;1.05;;;;;;;;;;6218964;23;20024;-72
2022/11/04 01:00:58;;;;;;;10.40;1.30;;;;;;;;;;6218817;23;20020;-73
2022/11/04 01:03:24;;;;;;;14.80;2.15;;;;;;;;;;6219383;23;20441;-73
2022/11/04 01:05:50;;;;;;;10.27;1.10;;;;;;;;;;6218785;23;20016;-73
2022/11/04 01:08:16;;;;;;;5.75;1.00;;;;;;;;;;6218964;23;20015;-73
2022/11/04 01:10:43;;;;;;;6.47;1.15;;;;;;;;;;6219141;23;20074;-73
2022/11/04 01:13:12;;;;;;;14.07;1.83;;;;;;;;;;6218812;23;20047;-73
2022/11/04 01:15:38;;;;;;;5.60;1.10;;;;;;;;;;6218995;23;20022;-73
2022/11/04 01:18:04;;;;;;;8.52;0.98;;;;;;;;;;6218649;23;20012;-73
2022/11/04 01:20:31;;;;;;;10.27;0.88;;;;;;;;;;6218719;23;20013;-72
2022/11/04 01:22:57;;;;;;;6.97;1.35;;;;;;;;;;6219006;23;20012;-72
2022/11/04 01:25:23;;;;;;;7.10;0.80;;;;;;;;;;6218726;23;20091;-72
2022/11/04 01:27:49;;;;;;;12.07;1.00;;;;;;;;;;6218954;23;20347;-72
2022/11/04 01:30:16;;;;;;;7.53;0.93;;;;;;;;;;6218931;23;20024;-73
2022/11/04 01:32:42;;;;;;;9.10;1.60;;;;;;;;;;6219031;23;20054;-73
2022/11/04 01:35:08;;;;;;;13.63;2.13;;;;;;;;;;6194020;23;20016;-72
2022/11/04 01:37:34;;;;;;;8.82;1.45;;;;;;;;;;6219369;23;20094;-72
2022/11/04 01:40:00;;;;;;;7.68;1.20;;;;;;;;;;6220605;23;20016;-72
2022/11/04 01:42:26;;;;;;;13.60;2.15;;;;;;;;;;6220892;23;20388;-72
2022/11/04 01:44:54;;;;;;;11.95;1.30;;;;;;;;;;6220792;23;20422;-72
2022/11/04 01:47:26;;;;;;;5.47;1.00;;;;;;;;;;6220627;23;20082;-72
2022/11/04 01:49:54;;;;;;;9.10;1.40;;;;;;;;;;6220530;23;20020;-72
2022/11/04 01:52:27;;;;;;;8.70;1.10;;;;;;;;;;6220845;23;20020;-72
2022/11/04 01:54:55;;;;;;;10.07;1.17;;;;;;;;;;6220670;23;20153;-72
2022/11/04 01:57:25;;;;;;;6.13;1.10;;;;;;;;;;6220745;23;20065;-72
2022/11/04 01:59:52;;;;;;;10.10;1.38;;;;;;;;;;6219983;23;20051;-72
2022/11/04 02:02:18;;;;;;;7.72;1.05;;;;;;;;;;6220708;23;20095;-72
2022/11/04 02:04:44;;;;;;;9.27;1.02;;;;;;;;;;6220464;23;20012;-73
2022/11/04 02:07:10;;;;;;;8.20;1.38;;;;;;;;;;6220661;23;20012;-72
2022/11/04 02:09:37;;;;;;;5.00;1.10;;;;;;;;;;6220499;23;20027;-72
2022/11/04 02:14:49;;;;;;;7.63;0.98;;;;;;;;;;6220283;23;20095;-73
2022/11/04 02:17:18;;;;;;;11.55;0.95;;;;;;;;;;6220614;23;20073;-72
2022/11/04 02:20:02;;;;;;;11.35;1.15;;;;;;;;;;6220279;23;20054;-72
2022/11/04 02:22:47;;;;;;;5.95;1.52;;;;;;;;;;6220550;23;20066;-72
2022/11/04 02:25:22;;;;;;;9.75;1.20;;;;;;;;;;6220422;23;20339;-72
2022/11/04 02:28:03;;;;;;;6.35;0.98;;;;;;;;;;6220532;23;20430;-72
2022/11/04 02:30:35;;;;;;;7.32;1.90;;;;;;;;;;6220220;23;20342;-72
2022/11/04 02:33:16;;;;;;;9.30;1.00;;;;;;;;;;6220352;23;20016;-73
2022/11/04 02:35:45;;;;;;;10.25;2.13;;;;;;;;;;6220181;23;20019;-73
2022/11/04 02:38:11;;;;;;;13.25;1.10;;;;;;;;;;6220107;23;20087;-73
2022/11/04 02:40:53;;;;;;;5.10;1.20;;;;;;;;;;6220120;23;20012;-73
2022/11/04 02:43:24;;;;;;;7.20;1.30;;;;;;;;;;6220303;23;20046;-72
2022/11/04 02:45:53;;;;;;;6.85;1.00;;;;;;;;;;6220193;23;20086;-72
2022/11/04 02:48:21;;;;;;;7.05;1.20;;;;;;;;;;6220047;23;20040;-72
2022/11/04 02:50:53;;;;;;;9.55;1.20;;;;;;;;;;6219712;23;20019;-73
2022/11/04 02:53:37;;;;;;;6.28;1.35;;;;;;;;;;6219946;23;20439;-72
2022/11/04 02:56:05;;;;;;;5.88;1.70;;;;;;;;;;6219901;23;20091;-72
2022/11/04 02:58:34;;;;;;;8.80;1.98;;;;;;;;;;6220089;23;20331;-73
2022/11/04 03:01:01;;;;;;;8.00;2.45;;;;;;;;;;6219691;23;20016;-72
2022/11/04 03:03:34;;;;;;;6.97;2.00;;;;;;;;;;6219850;23;20016;-73
2022/11/04 03:06:01;;;;;;;9.35;1.98;;;;;;;;;;6219967;23;20046;-73
2022/11/04 03:08:30;;;;;;;6.05;1.98;;;;;;;;;;6219854;23;20015;-73
2022/11/04 03:11:00;;;;;;;10.85;1.65;;;;;;;;;;6219848;23;20316;-72
2022/11/04 03:13:47;;;;;;;7.60;1.58;;;;;;;;;;6219798;23;20453;-73
2022/11/04 03:16:17;;;;;;;6.15;2.15;;;;;;;;;;6160271;23;20013;-73
2022/11/04 03:19:03;;;;;;;7.50;1.55;;;;;;;;;;6219790;23;20016;-73
2022/11/04 03:21:32;;;;;;;6.68;1.60;;;;;;;;;;6219462;23;20012;-73
2022/11/04 03:23:59;;;;;;;7.28;1.65;;;;;;;;;;6219849;23;20020;-73
2022/11/04 03:26:31;;;;;;;15.07;1.70;;;;;;;;;;6219822;23;20012;-72
2022/11/04 03:29:15;;;;;;;6.20;1.43;;;;;;;;;;6219735;23;20100;-72
2022/11/04 03:31:47;;;;;;;7.45;1.55;;;;;;;;;;6219573;23;20713;-74
2022/11/04 03:34:13;;;;;;;5.17;1.13;;;;;;;;;;6219653;23;20020;-75
2022/11/04 03:36:40;;;;;;;7.82;1.10;;;;;;;;;;6219610;23;20099;-75
2022/11/04 03:39:06;;;;;;;4.53;1.20;;;;;;;;;;6194685;23;20016;-75
2022/11/04 03:41:32;;;;;;;4.47;1.02;;;;;;;;;;6219597;23;20008;-75
2022/11/04 03:43:58;;;;;;;5.15;1.20;;;;;;;;;;6219594;23;20008;-75
2022/11/04 03:46:24;;;;;;;5.82;1.42;;;;;;;;;;6194639;23;20016;-75
2022/11/04 03:48:51;;;;;;;2.60;0.90;;;;;;;;;;6219507;23;20047;-75
2022/11/04 03:51:17;;;;;;;9.27;1.17;;;;;;;;;;6219959;23;20020;-75
2022/11/04 03:53:43;;;;;;;4.53;1.40;;;;;;;;;;6219655;23;20027;-75
2022/11/04 03:56:25;;;;;;;4.95;1.00;;;;;;;;;;6219548;23;20055;-76
2022/11/04 03:59:14;;;;;;;8.07;1.83;;;;;;;;;;6219821;23;20012;-75
2022/11/04 04:02:09;;;;;;;2.95;1.00;;;;;;;;;;6203743;23;20039;-75
2022/11/04 04:04:43;;;;;;;2.88;1.35;;;;;;;;;;6115138;23;20471;-75
2022/11/04 04:07:13;;;;;;;4.38;1.00;;;;;;;;;;6219532;23;20019;-75
2022/11/04 04:09:41;;;;;;;7.80;1.33;;;;;;;;;;6219469;23;20016;-75
2022/11/04 04:12:13;;;;;;;2.55;0.90;;;;;;;;;;6219339;23;20099;-76
2022/11/04 04:14:39;;;;;;;6.67;1.00;;;;;;;;;;6219519;23;20027;-75
2022/11/04 04:17:09;;;;;;;3.17;0.90;;;;;;;;;;6219292;23;20247;-75
2022/11/04 04:19:35;;;;;;;5.57;1.10;;;;;;;;;;6219156;23;20019;-75
2022/11/04 04:22:04;;;;;;;4.78;1.00;;;;;;;;;;6219222;23;20369;-75
2022/11/04 04:27:29;;;;;;;3.33;1.00;;;;;;;;;;6218872;23;20019;-76
2022/11/04 04:29:56;;;;;;;4.80;1.30;;;;;;;;;;6219271;23;20439;-75
2022/11/04 04:32:24;;;;;;;6.00;0.98;;;;;;;;;;6219013;23;20023;-75
2022/11/04 04:34:50;;;;;;;6.75;1.00;;;;;;;;;;6219247;23;20012;-75
2022/11/04 04:37:16;;;;;;;5.43;1.13;;;;;;;;;;6219273;23;20023;-75
2022/11/04 04:45:32;;;;;;;5.13;1.60;;;;;;;;;;6218906;23;20012;-75
2022/11/04 04:47:58;;;;;;;7.63;2.00;;;;;;;;;;6218921;23;20016;-74
2022/11/04 04:50:27;;;;;;;3.88;1.15;;;;;;;;;;6245899;23;20016;-74
2022/11/04 04:52:54;;;;;;;9.05;1.40;;;;;;;;;;6219031;23;20076;-75
2022/11/04 04:55:20;;;;;;;10.55;1.42;;;;;;;;;;6219049;23;20074;-76
2022/11/04 04:57:46;;;;;;;6.10;1.25;;;;;;;;;;6218924;23;20055;-75
2022/11/04 05:00:14;;;;;;;3.25;0.90;;;;;;;;;;6218894;23;20027;-75
2022/11/04 05:02:40;;;;;;;6.93;1.35;;;;;;;;;;6213594;23;20133;-75
2022/11/04 05:05:06;;;;;;;6.47;1.00;;;;;;;;;;6218401;23;20008;-74
2022/11/04 05:07:32;;;;;;;2.40;1.20;;;;;;;;;;6218585;22;20343;-74
2022/11/04 05:09:58;;;;;;;5.88;1.60;;;;;;;;;;6216772;23;20020;-74
2022/11/04 05:12:25;;;;;;;3.65;0.80;;;;;;;;;;6219415;23;20075;-74
2022/11/04 05:14:51;;;;;;;3.17;1.02;;;;;;;;;;6220998;23;20016;-74
2022/11/04 05:17:17;;;;;;;3.80;0.80;;;;;;;;;;6221021;23;20385;-74
2022/11/04 05:19:43;;;;;;;5.10;1.08;;;;;;;;;;6220996;23;20038;-74
2022/11/04 05:22:09;;;;;;;2.20;0.77;;;;;;;;;;6221111;23;20098;-73
2022/11/04 05:24:35;;;;;;;5.05;1.45;;;;;;;;;;6221126;23;20019;-74
2022/11/04 05:27:01;;;;;;;1.67;0.90;;;;;;;;;;6220980;23;20083;-73
2022/11/04 05:29:27;;;;;;;2.25;0.80;;;;;;;;;;6220965;23;20016;-73
2022/11/04 05:31:53;;;;;;;2.10;0.82;;;;;;;;;;6220900;23;20047;-73
2022/11/04 05:34:19;;;;;;;2.60;1.00;;;;;;;;;;6220888;23;20012;-74
2022/11/04 05:36:45;;;;;;;3.17;1.33;;;;;;;;;;6196037;23;20443;-73
2022/11/04 05:39:12;;;;;;;8.45;1.67;;;;;;;;;;6220642;23;20016;-73
2022/11/04 05:41:38;;;;;;;4.05;1.85;;;;;;;;;;6221109;23;20020;-73
2022/11/04 05:44:05;;;;;;;6.80;2.05;;;;;;;;;;6220826;23;20458;-73
2022/11/04 05:46:31;;;;;;;4.63;2.10;;;;;;;;;;6221218;23;20047;-73
2022/11/04 05:48:58;;;;;;;4.80;1.88;;;;;;;;;;6220876;23;20013;-73
2022/11/04 05:51:25;;;;;;;8.73;2.30;;;;;;;;;;6220582;23;20461;-73
2022/11/04 05:53:51;;;;;;;8.15;1.75;;;;;;;;;;6220613;23;20469;-73
2022/11/04 05:56:18;;;;;;;10.35;1.80;;;;;;;;;;6220645;23;20020;-73
2022/11/04 05:58:44;;;;;;;9.25;2.00;;;;;;;;;;6220625;23;20091;-73
2022/11/04 06:01:22;;;;;;;6.03;1.90;;;;;;;;;;6192496;23;20395;-73
2022/11/04 06:03:48;;;;;;;8.70;1.80;;;;;;;;;;6185530;23;20016;-73
2022/11/04 06:06:14;;;;;;;4.85;1.20;;;;;;;;;;6160457;23;20017;-73
2022/11/04 06:08:40;;;;;;;8.15;1.20;;;;;;;;;;6185052;23;20387;-73
2022/11/04 06:11:06;;;;;;;7.75;1.50;;;;;;;;;;6185546;23;20069;-73
2022/11/04 06:13:32;;;;;;;12.57;1.27;;;;;;;;;;6185451;23;20088;-73
2022/11/04 06:15:58;;;;;;;7.65;1.55;;;;;;;;;;6185449;23;20021;-73
2022/11/04 06:18:25;;;;;;;5.22;1.23;;;;;;;;;;6185134;23;20480;-73
2022/11/04 06:21:05;;;;;;;6.85;1.30;;;;;;;;;;6160638;23;20075;-73
2022/11/04 06:23:31;;;;;;;4.43;1.10;;;;;;;;;;6185278;23;20017;-73
2022/11/04 06:25:57;;;;;;;4.78;1.00;;;;;;;;;;6185324;23;20009;-73
2022/11/04 06:28:23;;;;;;;8.15;1.40;;;;;;;;;;6160282;23;20024;-73
2022/11/04 06:30:49;;;;;;;8.30;1.40;;;;;;;;;;6185223;23;20343;-73
2022/11/04 06:33:15;;;;;;;9.00;1.50;;;;;;;;;;6160249;23;20055;-73
2022/11/04 06:35:41;;;;;;;6.05;1.38;;;;;;;;;;6160679;23;20017;-73
2022/11/04 06:38:07;;;;;;;4.85;1.20;;;;;;;;;;6185056;23;20024;-73
2022/11/04 06:40:33;;;;;;;11.30;1.50;;;;;;;;;;6184967;23;20020;-73
2022/11/04 06:43:00;;;;;;;7.72;1.38;;;;;;;;;;6185077;23;20013;-73
2022/11/04 06:45:26;;;;;;;6.68;1.30;;;;;;;;;;6185231;23;20066;-73
2022/11/04 06:47:52;;;;;;;6.15;1.35;;;;;;;;;;6184968;23;20009;-73
2022/11/04 06:50:18;;;;;;;3.25;1.30;;;;;;;;;;6184956;23;20025;-73
2022/11/04 06:52:44;;;;;;;8.20;1.23;;;;;;;;;;6185367;23;20017;-74
2022/11/04 06:55:10;;;;;;;5.63;1.50;;;;;;;;;;6160108;23;20009;-73
2022/11/04 06:57:36;;;;;;;12.55;2.95;;;;;;;;;;6184942;23;20013;-73
2022/11/04 07:00:03;;;;;;;10.68;1.85;;;;;;;;;;6184607;23;20017;-73
2022/11/04 07:02:30;;;;;;;11.68;1.98;;;;;;;;;;6160328;23;20021;-73
2022/11/04 07:04:56;;;;;;;4.22;1.17;;;;;;;;;;6186195;23;20021;-73
2022/11/04 07:07:22;;;;;;;10.55;1.98;;;;;;;;;;6160164;23;20009;-73
2022/11/04 07:09:49;;;;;;;11.43;3.03;;;;;;;;;;6184672;23;20028;-73
2022/11/04 07:12:15;;;;;;;9.38;2.00;;;;;;;;;;6184783;23;20052;-73
2022/11/04 07:14:41;;;;;;;11.95;1.80;;;;;;;;;;6184800;23;20017;-73
2022/11/04 07:17:07;;;;;;;6.78;1.48;;;;;;;;;;6184709;23;20047;-69
2022/11/04 07:19:34;;;;;;;8.07;1.60;;;;;;;;;;6184021;23;20013;-72
2022/11/04 07:22:00;;;;;;;12.50;2.38;;;;;;;;;;6184755;23;20493;-72
2022/11/04 07:24:26;;;;;;;8.73;2.10;;;;;;;;;;6183284;23;20013;-72
2022/11/04 07:26:54;;;;;;;6.82;1.67;;;;;;;;;;6184619;23;20017;-72
2022/11/04 07:29:20;;;;;;;12.57;1.63;;;;;;;;;;6184477;23;20024;-71
2022/11/04 07:31:47;;;;;;;11.85;1.70;;;;;;;;;;6184294;23;20017;-72
2022/11/04 07:34:13;;;;;;;11.80;2.10;;;;;;;;;;6184047;23;20325;-72
2022/11/04 07:36:39;;;;;;;8.45;1.70;;;;;;;;;;6183878;23;20099;-72
2022/11/04 07:39:05;;;;;;;6.25;1.98;;;;;;;;;;6184043;23;20347;-71
2022/11/04 07:41:31;;;;;;;5.35;1.67;;;;;;;;;;6184204;23;20044;-71
2022/11/04 07:43:59;;;;;;;10.00;2.47;;;;;;;;;;6183784;23;20013;-72
2022/11/04 07:46:26;;;;;;;5.43;1.67;;;;;;;;;;6184139;23;20017;-72
2022/11/04 07:48:52;;;;;;;4.45;1.83;;;;;;;;;;6185134;23;20036;-72
2022/11/04 07:51:20;;;;;;;9.75;1.77;;;;;;;;;;6183453;23;20343;-71
2022/11/04 07:53:46;;;;;;;6.28;1.85;;;;;;;;;;6182449;23;20451;-72
2022/11/04 07:56:12;;;;;;;7.35;2.03;;;;;;;;;;6182711;23;20017;-72
2022/11/04 07:58:40;;;;;;;6.50;1.63;;;;;;;;;;6183054;23;20021;-71
2022/11/04 08:01:08;;;;;;;11.40;1.52;;;;;;;;;;6183168;23;20028;-72
2022/11/04 08:03:35;;;;;;;3.78;1.90;;;;;;;;;;6183270;23;20020;-72
2022/11/04 08:06:03;;;;;;;10.50;1.80;;;;;;;;;;6184230;23;20084;-72
2022/11/04 08:08:29;;;;;;;6.18;1.48;;;;;;;;;;6183844;23;20379;-72
2022/11/04 08:10:56;;;;;;;7.65;1.52;;;;;;;;;;6183890;23;20017;-72
2022/11/04 08:13:22;;;;;;;8.00;1.60;;;;;;;;;;6183932;23;20039;-72
2022/11/04 08:15:48;;;;;;;9.60;2.03;;;;;;;;;;6184068;23;20020;-72
2022/11/04 08:18:15;;;;;;;7.05;1.60;;;;;;;;;;6185208;23;20024;-72
2022/11/04 08:20:46;;;;;;;10.80;2.45;;;;;;;;;;6182186;23;20017;-72
2022/11/04 08:23:12;;;;;;;8.77;2.22;;;;;;;;;;6181459;23;20460;-72
2022/11/04 08:25:38;;;;;;;6.90;1.60;;;;;;;;;;6183914;23;20017;-72
2022/11/04 08:28:04;;;;;;;5.30;1.80;;;;;;;;;;6183848;23;20016;-72
2022/11/04 08:30:30;;;;;;;9.45;2.15;;;;;;;;;;6183964;23;20013;-71
2022/11/04 08:32:57;;;;;;;3.45;1.52;;;;;;;;;;6184179;23;20024;-71
2022/11/04 08:35:23;;;;;;;7.05;1.70;;;;;;;;;;6182600;23;20013;-72
2022/11/04 08:37:49;;;;;;;4.43;1.83;;;;;;;;;;6159293;23;20052;-72
2022/11/04 08:40:15;;;;;;;7.75;2.08;;;;;;;;;;6183864;23;20013;-71
2022/11/04 08:42:41;;;;;;;6.63;1.73;;;;;;;;;;6183908;23;20009;-71
2022/11/04 08:45:07;;;;;;;4.05;1.75;;;;;;;;;;6159151;23;20045;-71
2022/11/04 08:47:33;;;;;;;9.00;1.60;;;;;;;;;;6183606;23;20013;-72
2022/11/04 08:49:59;;;;;;;7.05;1.77;;;;;;;;;;6181309;23;20025;-71
2022/11/04 08:52:25;;;;;;;4.68;1.88;;;;;;;;;;6183948;23;20021;-71
2022/11/04 08:54:53;;;;;;;9.60;1.88;;;;;;;;;;6159004;23;20020;-72
2022/11/04 08:57:19;;;;;;;5.80;1.55;;;;;;;;;;6184017;23;20490;-72
2022/11/04 08:59:46;;;;;;;7.85;2.15;;;;;;;;;;6180048;23;20021;-71
2022/11/04 09:02:13;;;;;;;6.35;1.83;;;;;;;;;;6154691;23;20021;-71
2022/11/04 09:04:39;;;;;;;8.55;2.08;;;;;;;;;;6155378;23;20016;-72
2022/11/04 09:07:06;;;;;;;3.00;1.33;;;;;;;;;;6180209;23;20013;-71
2022/11/04 09:09:32;;;;;;;8.85;1.80;;;;;;;;;;6180293;23;20047;-70
2022/11/04 09:11:58;;;;;;;7.00;1.33;;;;;;;;;;6179729;23;20025;-71
2022/11/04 09:14:24;;;;;;;5.15;1.50;;;;;;;;;;6155346;23;20016;-71
2022/11/04 09:16:50;;;;;;;2.97;1.48;;;;;;;;;;6182711;23;20344;-71
2022/11/04 09:19:16;;;;;;;10.30;1.52;;;;;;;;;;6181623;23;20059;-71
2022/11/04 09:21:42;;;;;;;8.05;2.95;;;;;;;;;;6181599;23;20486;-71
2022/11/04 09:24:10;;;;;;;5.78;1.50;;;;;;;;;;6181434;23;20088;-72
2022/11/04 09:26:36;;;;;;;6.63;1.40;;;;;;;;;;6181545;23;20088;-69
2022/11/04 09:29:02;;;;;;;5.28;1.40;;;;;;;;;;6132320;23;20021;-70
2022/11/04 09:31:29;;;;;;;8.73;1.48;;;;;;;;;;6183626;23;20024;-71
2022/11/04 09:33:56;;;;;;;5.50;1.40;;;;;;;;;;6181564;23;20041;-72
2022/11/04 09:36:22;;;;;;;4.05;1.40;;;;;;;;;;6181368;23;20017;-71
2022/11/04 09:38:48;;;;;;;6.30;1.40;;;;;;;;;;6181175;23;20048;-72
2022/11/04 09:41:20;;;;;;;6.53;1.40;;;;;;;;;;6180817;23;20079;-72
2022/11/04 09:43:56;;;;;;;7.05;1.80;;;;;;;;;;6180659;23;20019;-72
2022/11/04 09:46:22;;;;;;;5.18;1.40;;;;;;;;;;6180403;23;20017;-72
2022/11/04 09:48:51;;;;;;;10.30;2.30;;;;;;;;;;6155814;23;20302;-72
2022/11/04 09:51:19;;;;;;;8.95;2.38;;;;;;;;;;6181515;23;20013;-72
2022/11/04 09:53:47;;;;;;;5.13;1.42;;;;;;;;;;6181931;23;20017;-72
2022/11/04 09:56:16;;;;;;;10.15;1.77;;;;;;;;;;6181387;23;20446;-72
2022/11/04 09:58:42;;;;;;;6.78;1.70;;;;;;;;;;6181789;23;20017;-72
2022/11/04 10:01:11;;;;;;;8.98;1.98;;;;;;;;;;6183134;23;20028;-73
2022/11/04 10:03:51;;;;;;;4.25;1.42;;;;;;;;;;6158367;23;20019;-73
2022/11/04 10:06:30;;;;;;;7.38;2.38;;;;;;;;;;6185003;23;20072;-72
2022/11/04 10:09:01;;;;;;;7.97;1.80;;;;;;;;;;6185376;23;20467;-72
2022/11/04 10:11:30;;;;;;;5.75;2.45;;;;;;;;;;6184919;23;20020;-72
2022/11/04 10:14:15;;;;;;;7.05;1.85;;;;;;;;;;6184812;23;20047;-70
2022/11/04 10:16:58;;;;;;;5.68;1.35;;;;;;;;;;6184906;23;20028;-69
2022/11/04 10:19:43;;;;;;;5.22;1.10;;;;;;;;;;6184943;23;20055;-74
2022/11/04 10:22:09;;;;;;;16.05;2.10;;;;;;;;;;6185284;23;20088;-73
2022/11/04 10:24:38;;;;;;;3.38;1.38;;;;;;;;;;6185177;23;20021;-70
2022/11/04 10:27:09;;;;;;;13.35;2.17;;;;;;;;;;6185079;23;20013;-70
2022/11/04 10:29:35;;;;;;;6.15;1.63;;;;;;;;;;6185245;23;20147;-70
2022/11/04 10:32:02;;;;;;;10.50;2.03;;;;;;;;;;6184999;23;20020;-70
2022/11/04 10:34:28;;;;;;;11.05;1.98;;;;;;;;;;6184904;23;20023;-70
2022/11/04 10:36:56;;;;;;;9.25;1.95;;;;;;;;;;6184902;23;20071;-70
2022/11/04 10:39:30;;;;;;;8.23;2.67;;;;;;;;;;6184941;23;20017;-70
2022/11/04 10:41:57;;;;;;;9.90;2.30;;;;;;;;;;6185396;23;20085;-70
2022/11/04 10:44:32;;;;;;;10.48;1.98;;;;;;;;;;6185160;23;20332;-70
2022/11/04 10:46:58;;;;;;;9.02;1.80;;;;;;;;;;6184983;23;20084;-70
2022/11/04 10:49:25;;;;;;;8.13;1.80;;;;;;;;;;6185048;23;20017;-70
2022/11/04 10:51:51;;;;;;;7.05;2.47;;;;;;;;;;6184967;23;20017;-70
2022/11/04 10:54:18;;;;;;;7.32;1.77;;;;;;;;;;6160386;23;20023;-70
2022/11/04 10:56:48;;;;;;;8.57;1.80;;;;;;;;;;6184864;23;20032;-69
2022/11/04 10:59:34;;;;;;;6.97;1.95;;;;;;;;;;6184864;23;20478;-69
2022/11/04 11:02:01;;;;;;;11.32;1.90;;;;;;;;;;6184577;23;20071;-69
2022/11/04 11:04:32;;;;;;;7.30;1.73;;;;;;;;;;6186428;23;20013;-68
2022/11/04 11:06:59;;;;;;;7.30;1.90;;;;;;;;;;6185074;23;20383;-69
2022/11/04 11:09:29;;;;;;;11.05;2.35;;;;;;;;;;6184707;23;20045;-69
2022/11/04 11:11:59;;;;;;;12.02;3.72;;;;;;;;;;6184689;23;20020;-69
2022/11/04 11:14:29;;;;;;;9.00;2.28;;;;;;;;;;6184946;23;20013;-69
2022/11/04 11:17:13;;;;;;;10.95;2.17;;;12.40;99.90;;;;;;6184895;23;20023;-69
2022/11/04 11:19:51;;;;;;;5.95;1.52;;;;;;;;;;6186374;23;20347;-69
2022/11/04 11:22:36;;;;;;;8.60;1.92;;;;;;;;;;6184904;23;20147;-69
2022/11/04 11:25:23;;;;;;;5.60;1.38;;;;;;;;;;6184786;23;20013;-69
2022/11/04 11:27:52;;;;;;;7.28;1.40;;;;;;;;;;6184801;23;20110;-69
2022/11/04 11:30:20;;;;;;;7.82;1.58;;;;;;;;;;6184749;23;20021;-69
2022/11/04 11:32:52;;;;;;;8.27;1.83;;;;;;;;;;6184746;23;20071;-69
2022/11/04 11:35:18;;;;;;;4.07;1.60;;;;;;;;;;6184469;23;20020;-69
2022/11/04 11:37:46;;;;;;;14.15;1.60;;;;;;;;;;6184215;23;20017;-69
2022/11/04 11:40:26;;;;;;;6.47;1.25;;;;;;;;;;6159368;23;20067;-69
2022/11/04 11:42:52;;;;;;;8.00;1.52;;;;;;;;;;6184235;23;20024;-69
2022/11/04 11:45:20;;;;;;;7.15;1.30;;;;;;;;;;6184221;23;20561;-69
2022/11/04 11:47:46;;;;;;;3.33;1.15;;;;;;;;;;6184413;23;20060;-69
2022/11/04 11:50:12;;;;;;;8.10;1.73;;;;;;;;;;6184542;23;20092;-69
2022/11/04 11:52:39;;;;;;;5.72;1.63;;;;;;;;;;6186122;23;20021;-69
2022/11/04 11:55:25;;;;;;;6.93;1.60;;;13.20;99.90;;;;;;6185846;23;20097;-69
2022/11/04 11:57:57;;;;;;;4.72;1.67;;;;;;;;;;6185692;23;20009;-70
2022/11/04 12:00:31;;;;;;;7.88;1.70;;;;;;;;;;6184376;23;20048;-69
2022/11/04 12:03:29;;;;;;;5.25;1.40;;;;;;;;;;6184799;23;20024;-69
2022/11/04 12:06:00;;;;;;;10.48;1.90;;;;;;;;;;6148096;23;20016;-70
2022/11/04 12:08:41;;;;;;;13.38;1.67;;;;;;;;;;6183675;23;20064;-70
2022/11/04 12:11:15;;;;;;;10.63;2.30;;;;;;;;;;6184230;23;20313;-69
2022/11/04 12:13:47;;;;;;;9.30;1.88;;;;;;;;;;6159468;23;20490;-69
2022/11/04 12:16:32;;;;;;;10.10;1.50;;;;;;;;;;6183817;23;20013;-69
2022/11/04 12:18:58;;;;;;;9.35;2.17;;;;;;;;;;6184609;23;20016;-70
2022/11/04 12:21:32;;;;;;;8.05;1.70;;;;;;;;;;6158167;23;20021;-70
2022/11/04 12:24:12;;;;;;;13.90;1.63;;;;;;;;;;6159553;23;20096;-70
2022/11/04 12:26:43;;;;;;;10.48;1.48;;;;;;;;;;6158946;23;20013;-70
2022/11/04 12:29:09;;;;;;;14.03;2.40;;;;;;;;;;6184053;23;20428;-70
2022/11/04 12:31:47;;;;;;;12.07;1.50;;;;;;;;;;6183892;23;20082;-71
2022/11/04 12:34:19;;;;;;;10.45;1.75;;;;;;;;;;6159399;23;20028;-71
2022/11/04 12:36:45;;;;;;;13.82;3.13;;;;;;;;;;6158709;23;20012;-71
2022/11/04 12:39:20;;;;;;;12.27;1.50;;;;;;;;;;6158344;23;20080;-70
2022/11/04 12:41:58;;;;;;;10.07;1.98;;;;;;;;;;6182600;23;20009;-70
2022/11/04 12:44:43;;;;;;;13.48;1.65;;;;;;;;;;6184379;23;20019;-70
2022/11/04 12:47:18;;;;;;;13.77;1.80;;;;;;;;;;6184607;23;20485;-70
2022/11/04 12:49:54;;;;;;;8.65;2.00;;;;;;;;;;6183596;23;20016;-71
2022/11/04 12:52:29;;;;;;;11.77;2.47;;;;;;;;;;6184036;23;20040;-70
2022/11/04 12:55:03;;;;;;;16.67;2.42;;;;;;;;;;6159242;23;20051;-70
2022/11/04 12:57:32;;;;;;;7.38;1.33;;;;;;;;;;6183871;23;20028;-70
2022/11/04 13:00:07;;;;;;;10.23;2.00;;;;;;;;;;6196650;23;20016;-71
2022/11/04 13:02:43;;;;;;;9.25;1.42;;;;;;;;;;6218988;23;20407;-71
2022/11/04 13:05:30;;;;;;;8.77;1.50;;;;;;;;;;6219157;23;20083;-71
2022/11/04 13:07:59;;;;;;;8.48;1.42;;;;;;;;;;6218884;23;20077;-71
2022/11/04 13:10:36;;;;;;;19.80;1.75;;;;;;;;;;6219010;23;20020;-71
2022/11/04 13:13:03;;;;;;;13.93;1.90;;;;;;;;;;6219120;23;20055;-71
2022/11/04 13:15:33;;;;;;;4.22;1.30;;;;;;;;;;6217854;23;20385;-71
2022/11/04 13:18:08;;;;;;;10.00;1.33;;;;;;;;;;6218722;23;20016;-71
2022/11/04 13:20:44;;;;;;;8.35;1.42;;;;;;;;;;6218884;23;20410;-71
2022/11/04 13:23:24;;;;;;;10.80;1.80;;;;;;;;;;6218182;23;20465;-72
2022/11/04 13:25:51;;;;;;;9.10;1.40;;;;;;;;;;6218812;23;20087;-72
2022/11/04 13:28:19;;;;;;;9.80;1.48;;;;;;;;;;6218939;23;20316;-72
2022/11/04 13:30:45;;;;;;;14.52;1.65;;;;;;;;;;6218778;23;20085;-72
2022/11/04 13:33:44;;;;;;;12.60;1.73;;;;;;;;;;6219112;23;20113;-71
2022/11/04 13:36:27;;;;;;;9.45;1.45;;;;;;;;;;6220684;23;20052;-72
2022/11/04 13:38:59;;;;;;;13.02;1.67;;;;;;;;;;6244979;22;20023;-72
2022/11/04 13:41:42;;;;;;;9.43;1.85;;;;;;;;;;6220799;23;20470;-72
2022/11/04 13:44:28;;;;;;;12.50;1.48;;;;;;;;;;6247508;23;20016;-72
2022/11/04 13:47:20;;;;;;;14.80;1.33;;;;;;;;;;6220441;23;20085;-72
2022/11/04 13:49:54;;;;;;;17.60;2.00;;;;;;;;;;6195315;23;20019;-72
2022/11/04 13:52:26;;;;;;;17.45;2.00;;;;;;;;;;6220510;23;20023;-72
2022/11/04 13:54:59;;;;;;;12.73;1.40;;;;;;;;;;6220691;23;20012;-71
2022/11/04 13:57:29;;;;;;;13.13;2.40;;;;;;;;;;6220668;23;20182;-73
2022/11/04 14:00:13;;;;;;;8.40;1.63;;;;;;;;;;6218843;23;20086;-73
2022/11/04 14:02:45;;;;;;;13.77;1.48;;;;;;;;;;6190015;23;20021;-72
2022/11/04 14:05:24;;;;;;;12.38;1.33;;;;;;;;;;6183386;23;20024;-72
2022/11/04 14:08:02;;;;;;;13.38;2.08;;;;;;;;;;6184830;23;20436;-72
2022/11/04 14:10:39;;;;;;;7.78;1.30;;;;;;;;;;6182878;23;20021;-72
2022/11/04 14:13:26;;;;;;;8.07;1.50;;;13.80;99.90;;;;;;6184844;23;20021;-72
2022/11/04 14:16:23;;;;;;;8.77;1.42;;;13.80;99.90;;;;;;6184118;23;20044;-72
2022/11/04 14:18:50;;;;;;;7.63;1.40;;;;;;;;;;6185415;23;20024;-72
2022/11/04 14:21:17;;;;;;;11.27;1.70;;;;;;;;;;6185415;23;20021;-72
2022/11/04 14:23:45;;;;;;;9.98;1.60;;;;;;;;;;6185015;23;20092;-72
2022/11/04 14:26:16;;;;;;;7.35;1.67;;;;;;;;;;6185329;23;20088;-72
2022/11/04 14:28:43;;;;;;;15.73;1.48;;;;;;;;;;6185339;23;20024;-72
2022/11/04 14:31:14;;;;;;;11.05;2.28;;;;;;;;;;6185395;23;20017;-72
2022/11/04 14:33:50;;;;;;;12.18;2.42;;;;;;;;;;6185412;23;20404;-72
2022/11/04 14:36:22;;;;;;;13.63;2.25;;;;;;;;;;6160403;23;20021;-72
2022/11/04 14:38:56;;;;;;;11.30;1.50;;;;;;;;;;6185138;23;20013;-72
2022/11/04 14:41:29;;;;;;;9.70;1.70;;;;;;;;;;6183887;23;20024;-72
2022/11/04 14:43:58;;;;;;;8.13;1.52;;;;;;;;;;6187224;23;20013;-71
2022/11/04 14:46:28;;;;;;;7.70;1.63;;;;;;;;;;6184598;23;20328;-72
2022/11/04 14:48:56;;;;;;;13.88;1.63;;;;;;;;;;6186457;23;20013;-72
2022/11/04 14:51:27;;;;;;;10.80;1.67;;;;;;;;;;6185114;23;20064;-72
2022/11/04 14:53:59;;;;;;;11.90;1.52;;;;;;;;;;6185029;23;20020;-72
2022/11/04 14:56:25;;;;;;;12.80;1.40;;;;;;;;;;6184207;23;20059;-72
2022/11/04 14:58:51;;;;;;;12.43;1.50;;;;;;;;;;6183487;23;20012;-73
2022/11/04 15:01:18;;;;;;;8.75;1.45;;;;;;;;;;6194967;23;20017;-73
2022/11/04 15:03:45;;;;;;;16.08;2.10;;;;;;;;;;6217513;23;20016;-73
2022/11/04 15:06:12;;;;;;;10.27;1.45;;;;;;;;;;6218440;23;20016;-73
2022/11/04 15:08:41;;;;;;;12.48;2.08;;;;;;;;;;6219996;23;20470;-73
2022/11/04 15:11:10;;;;;;;9.70;1.65;;;;;;;;;;6220077;23;20046;-73
2022/11/04 15:13:49;;;;;;;11.82;2.00;;;;;;;;;;6219970;23;20047;-73
2022/11/04 15:16:15;;;;;;;15.52;1.92;;;;;;;;;;6220183;23;20016;-72
2022/11/04 15:18:42;;;;;;;16.60;2.10;;;;;;;;;;6219990;23;20012;-72
2022/11/04 15:21:09;;;;;;;20.65;1.92;;;;;;;;;;6219972;23;20373;-73
2022/11/04 15:23:49;;;;;;;14.27;1.48;;;;;;;;;;6220097;23;20012;-73